Time;durP1;ratioP1;P1;durP2;ratioP2;P2;SDS_P1;SDS_P2;PMS_P1;PMS_P2;Temp;Humidity;BMP_temperature;BMP_pressure;BME280_temperature;BME280_humidity;BME280_pressure;Samples;Min_cycle;Max_cycle;Signal;HPM_P1;HPM_P2
2022/05/07 00:00:43;;;;;;;18.23;12.13;;;10.30;99.90;;;;;;5037638;28;20449;-83
2022/05/07 00:03:09;;;;;;;15.23;11.68;;;10.30;99.90;;;;;;5036833;28;20021;-80
2022/05/07 00:05:36;;;;;;;19.98;12.93;;;10.30;99.90;;;;;;5034450;28;20025;-81
2022/05/07 00:08:03;;;;;;;18.63;13.05;;;10.30;99.90;;;;;;5017643;28;20062;-82
2022/05/07 00:10:29;;;;;;;18.92;12.30;;;10.30;99.90;;;;;;5035584;28;20378;-80
2022/05/07 00:12:55;;;;;;;17.60;12.35;;;10.30;99.90;;;;;;5036406;28;20133;-79
2022/05/07 00:15:20;;;;;;;17.13;12.40;;;10.30;99.90;;;;;;5034161;28;20025;-82
2022/05/07 00:18:01;;;;;;;17.25;11.60;;;10.20;99.90;;;;;;5035434;28;20053;-81
2022/05/07 00:20:28;;;;;;;15.15;10.77;;;10.10;99.90;;;;;;5037387;28;20026;-80
2022/05/07 00:22:54;;;;;;;13.75;11.00;;;10.00;99.90;;;;;;5019387;28;20489;-81
2022/05/07 00:25:20;;;;;;;16.35;11.52;;;10.00;99.90;;;;;;5038015;28;20037;-79
2022/05/07 00:27:45;;;;;;;19.13;12.60;;;10.10;99.90;;;;;;5034939;28;20022;-83
2022/05/07 00:30:11;;;;;;;16.27;11.48;;;10.10;99.90;;;;;;5037105;28;20053;-82
2022/05/07 00:32:37;;;;;;;17.80;12.07;;;10.10;99.90;;;;;;5018754;28;20048;-81
2022/05/07 00:35:02;;;;;;;16.52;11.57;;;10.10;99.90;;;;;;5036328;28;20030;-81
2022/05/07 00:37:28;;;;;;;15.65;11.35;;;10.10;99.90;;;;;;5018254;28;20030;-80
2022/05/07 00:39:54;;;;;;;16.60;11.95;;;10.00;99.90;;;;;;5018170;28;20108;-80
2022/05/07 00:42:28;;;;;;;14.00;11.45;;;9.90;99.90;;;;;;5035434;28;20041;-82
2022/05/07 00:44:54;;;;;;;15.73;11.48;;;9.90;99.90;;;;;;5019898;28;20477;-79
2022/05/07 00:47:31;;;;;;;14.90;11.43;;;9.90;99.90;;;;;;5016399;28;20125;-80
2022/05/07 00:52:55;;;;;;;13.50;10.80;;;9.70;99.90;;;;;;5030825;28;20109;-78
2022/05/07 00:55:23;;;;;;;16.02;11.50;;;9.70;99.90;;;;;;5048307;28;20029;-80
2022/05/07 00:57:49;;;;;;;14.40;11.73;;;9.70;99.90;;;;;;5022462;28;20025;-78
2022/05/07 01:00:15;;;;;;;16.90;12.95;;;9.60;99.90;;;;;;5035341;28;20079;-79
2022/05/07 01:02:41;;;;;;;15.68;11.88;;;9.60;99.90;;;;;;5037051;28;20026;-80
2022/05/07 01:05:07;;;;;;;16.55;11.93;;;9.50;99.90;;;;;;5019724;28;20083;-80
2022/05/07 01:07:36;;;;;;;17.73;12.60;;;9.50;99.90;;;;;;5019257;28;20040;-83
2022/05/07 01:10:05;;;;;;;16.98;12.20;;;9.40;99.90;;;;;;5018679;28;20381;-82
2022/05/07 01:12:31;;;;;;;14.18;11.35;;;9.40;99.90;;;;;;5019322;28;20503;-80
2022/05/07 01:14:57;;;;;;;15.07;12.23;;;9.40;99.90;;;;;;5036964;28;20083;-80
2022/05/07 01:17:23;;;;;;;20.25;13.68;;;9.40;99.90;;;;;;5019373;28;20079;-81
2022/05/07 01:19:52;;;;;;;16.92;12.88;;;9.40;99.90;;;;;;5018884;28;20032;-81
2022/05/07 01:22:19;;;;;;;16.85;13.05;;;9.40;99.90;;;;;;5019787;28;20025;-79
2022/05/07 01:24:44;;;;;;;16.77;12.30;;;9.40;99.90;;;;;;5044177;28;20032;-83
2022/05/07 01:27:10;;;;;;;18.48;12.95;;;9.40;99.90;;;;;;5023053;28;20449;-82
2022/05/07 01:29:36;;;;;;;19.17;13.68;;;9.40;99.90;;;;;;5057270;28;20120;-80
2022/05/07 01:32:02;;;;;;;17.20;12.95;;;9.40;99.90;;;;;;5058718;28;20069;-80
2022/05/07 01:34:28;;;;;;;18.42;13.25;;;9.40;99.90;;;;;;5041191;28;20021;-76
2022/05/07 01:36:54;;;;;;;20.15;14.10;;;9.40;99.90;;;;;;5041534;28;20040;-78
2022/05/07 01:39:19;;;;;;;18.25;13.13;;;9.50;99.90;;;;;;5034119;28;20040;-81
2022/05/07 01:41:46;;;;;;;17.83;14.07;;;9.50;99.90;;;;;;5021028;28;20053;-84
2022/05/07 01:44:11;;;;;;;18.67;12.50;;;9.50;99.90;;;;;;5038731;28;20087;-82
2022/05/07 01:49:21;;;;;;;19.98;13.35;;;9.60;99.90;;;;;;5045769;28;20055;-81
2022/05/07 01:51:46;;;;;;;21.48;13.55;;;9.60;99.90;;;;;;5054098;28;20081;-82
2022/05/07 01:54:13;;;;;;;16.70;12.43;;;9.60;99.90;;;;;;5024707;28;20026;-80
2022/05/07 01:56:38;;;;;;;16.33;12.30;;;9.60;99.90;;;;;;5041015;28;20036;-82
2022/05/07 01:59:04;;;;;;;16.88;12.65;;;9.60;99.90;;;;;;5022993;28;20030;-80
2022/05/07 02:01:29;;;;;;;17.83;12.30;;;9.50;99.90;;;;;;5023080;28;20022;-84
2022/05/07 02:03:55;;;;;;;17.15;12.32;;;9.50;99.90;;;;;;5038106;28;20032;-82
2022/05/07 02:06:20;;;;;;;19.70;12.43;;;9.40;99.90;;;;;;5037473;28;20026;-79
2022/05/07 02:08:47;;;;;;;17.13;12.55;;;9.30;99.90;;;;;;5034417;28;20065;-82
2022/05/07 02:11:13;;;;;;;15.77;11.80;;;9.30;99.90;;;;;;5034768;28;20021;-78
2022/05/07 02:13:38;;;;;;;18.52;12.90;;;9.30;99.90;;;;;;5034845;28;20014;-80
2022/05/07 02:16:04;;;;;;;18.23;12.02;;;9.20;99.90;;;;;;5036082;28;20029;-80
2022/05/07 02:18:30;;;;;;;16.10;12.23;;;9.20;99.90;;;;;;5035698;28;20029;-79
2022/05/07 02:20:56;;;;;;;17.48;12.80;;;9.10;99.90;;;;;;5035804;28;20024;-79
2022/05/07 02:23:22;;;;;;;16.98;12.65;;;9.10;99.90;;;;;;5035608;28;20017;-81
2022/05/07 02:25:48;;;;;;;16.73;12.15;;;9.10;99.90;;;;;;5035472;28;20465;-83
2022/05/07 02:28:14;;;;;;;15.70;12.15;;;9.00;99.90;;;;;;5017523;28;20030;-80
2022/05/07 02:30:40;;;;;;;15.77;12.45;;;9.00;99.90;;;;;;5035565;28;20017;-79
2022/05/07 02:33:05;;;;;;;21.85;13.27;;;9.00;99.90;;;;;;5035205;28;20028;-80
2022/05/07 02:35:31;;;;;;;18.98;12.63;;;8.90;99.90;;;;;;5033948;28;20025;-79
2022/05/07 02:37:58;;;;;;;19.60;13.20;;;8.90;99.90;;;;;;5035021;28;20036;-80
2022/05/07 02:40:23;;;;;;;18.52;13.13;;;8.90;99.90;;;;;;5017261;28;20060;-81
2022/05/07 02:42:49;;;;;;;15.48;11.93;;;8.90;99.90;;;;;;5035025;28;20037;-78
2022/05/07 02:45:15;;;;;;;15.85;12.23;;;8.80;99.90;;;;;;5034769;28;20051;-80
2022/05/07 02:47:41;;;;;;;17.52;12.70;;;8.80;99.90;;;;;;5017037;28;20021;-82
2022/05/07 02:50:09;;;;;;;15.75;12.90;;;8.80;99.90;;;;;;5017121;28;20036;-80
2022/05/07 02:52:35;;;;;;;19.88;13.27;;;8.80;99.90;;;;;;5034703;28;20017;-80
2022/05/07 02:55:02;;;;;;;16.27;12.05;;;8.70;99.90;;;;;;5034570;28;20029;-82
2022/05/07 02:57:28;;;;;;;21.70;15.02;;;8.70;99.90;;;;;;5016888;28;20029;-81
2022/05/07 02:59:54;;;;;;;19.23;13.63;;;8.80;99.90;;;;;;5033286;28;20028;-82
2022/05/07 03:02:20;;;;;;;19.65;14.65;;;8.80;99.90;;;;;;5033973;28;20021;-81
2022/05/07 03:04:47;;;;;;;19.52;14.35;;;8.80;99.90;;;;;;5017328;28;20045;-82
2022/05/07 03:07:16;;;;;;;20.42;14.20;;;8.80;99.90;;;;;;5017265;28;20060;-83
2022/05/07 03:09:41;;;;;;;19.83;15.40;;;8.80;99.90;;;;;;5034389;28;20042;-84
2022/05/07 03:12:09;;;;;;;17.73;14.05;;;8.80;99.90;;;;;;5033917;28;20110;-84
2022/05/07 03:14:34;;;;;;;22.48;15.40;;;8.80;99.90;;;;;;5016671;28;20025;-83
2022/05/07 03:17:00;;;;;;;22.73;15.98;;;8.80;99.90;;;;;;5017020;28;20033;-83
2022/05/07 03:19:26;;;;;;;25.48;16.88;;;8.80;99.90;;;;;;5016983;28;20040;-84
2022/05/07 03:21:51;;;;;;;22.88;16.45;;;8.80;99.90;;;;;;5017131;28;20481;-84
2022/05/07 03:24:17;;;;;;;29.25;18.88;;;8.80;99.90;;;;;;5016895;28;20018;-85
2022/05/07 03:26:43;;;;;;;31.77;20.80;;;8.90;99.90;;;;;;5016563;28;20116;-82
2022/05/07 03:29:09;;;;;;;29.45;19.30;;;9.00;99.90;;;;;;5033079;28;20025;-82
2022/05/07 03:31:34;;;;;;;25.67;18.58;;;9.10;99.90;;;;;;5016648;28;20026;-85
2022/05/07 03:34:00;;;;;;;26.27;17.77;;;9.10;99.90;;;;;;5017087;28;20029;-84
2022/05/07 03:36:27;;;;;;;30.02;19.23;;;9.10;99.90;;;;;;5016578;28;20493;-83
2022/05/07 03:38:53;;;;;;;28.30;18.70;;;9.10;99.90;;;;;;5033317;28;20029;-82
2022/05/07 03:41:19;;;;;;;22.50;17.02;;;9.10;99.90;;;;;;5016770;28;20037;-82
2022/05/07 03:43:45;;;;;;;25.98;17.92;;;9.10;99.90;;;;;;5034417;28;20029;-83
2022/05/07 03:46:10;;;;;;;24.13;17.52;;;9.10;99.90;;;;;;5017287;28;20080;-84
2022/05/07 03:48:36;;;;;;;22.52;16.95;;;9.10;99.90;;;;;;5033209;28;20093;-84
2022/05/07 03:51:02;;;;;;;23.58;17.13;;;9.10;99.90;;;;;;5034963;28;20017;-84
2022/05/07 03:53:31;;;;;;;21.83;16.00;;;9.10;99.90;;;;;;5035161;28;20470;-86
2022/05/07 03:56:01;;;;;;;21.98;16.63;;;9.00;99.90;;;;;;5035658;28;20025;-86
2022/05/07 03:58:27;;;;;;;24.80;17.10;;;9.00;99.90;;;;;;5017779;28;20028;-84
2022/05/07 04:00:54;;;;;;;24.65;17.17;;;9.00;99.90;;;;;;5018296;28;20021;-84
2022/05/07 04:03:20;;;;;;;26.45;17.55;;;9.00;99.90;;;;;;5036003;28;20025;-85
2022/05/07 04:05:46;;;;;;;25.92;17.88;;;9.00;99.90;;;;;;5026786;28;20026;-85
2022/05/07 04:08:11;;;;;;;22.75;16.67;;;9.00;99.90;;;;;;5027785;28;20084;-85
2022/05/07 04:10:37;;;;;;;24.30;16.75;;;9.00;99.90;;;;;;5034336;28;20110;-83
2022/05/07 04:13:02;;;;;;;25.23;17.80;;;9.00;99.90;;;;;;5016858;28;20034;-81
2022/05/07 04:15:28;;;;;;;26.52;18.90;;;9.00;99.90;;;;;;5017741;28;20150;-82
2022/05/07 04:17:53;;;;;;;27.05;17.85;;;9.10;99.90;;;;;;5033495;28;20029;-83
2022/05/07 04:20:19;;;;;;;26.08;19.67;;;9.10;99.90;;;;;;5016776;28;20026;-87
2022/05/07 04:22:45;;;;;;;23.90;17.95;;;9.20;99.90;;;;;;5016800;28;20029;-83
2022/05/07 04:25:12;;;;;;;26.13;18.10;;;9.20;99.90;;;;;;5016646;28;20469;-84
2022/05/07 04:27:38;;;;;;;25.48;18.08;;;9.30;99.90;;;;;;5033370;28;20032;-85
2022/05/07 04:30:04;;;;;;;23.63;17.70;;;9.30;99.90;;;;;;5017179;28;20113;-83
2022/05/07 04:32:31;;;;;;;22.50;16.00;;;9.30;99.90;;;;;;5017597;28;20116;-85
2022/05/07 04:34:56;;;;;;;25.75;16.52;;;9.40;99.90;;;;;;5037678;28;20029;-83
2022/05/07 04:37:23;;;;;;;23.58;16.92;;;9.50;99.90;;;;;;5039610;28;20035;-86
2022/05/07 04:39:48;;;;;;;23.65;17.27;;;9.50;99.90;;;;;;5022619;28;20026;-85
2022/05/07 04:42:14;;;;;;;21.65;16.67;;;9.60;99.90;;;;;;5039910;28;20539;-85
2022/05/07 04:44:41;;;;;;;27.17;17.80;;;9.70;99.90;;;;;;5038178;28;20063;-84
2022/05/07 04:47:07;;;;;;;24.10;16.48;;;9.80;99.90;;;;;;5020798;28;20025;-82
2022/05/07 04:49:32;;;;;;;25.77;17.38;;;9.90;99.90;;;;;;5037221;28;20032;-81
2022/05/07 04:51:58;;;;;;;23.48;15.40;;;10.00;99.90;;;;;;5020551;28;20052;-85
2022/05/07 04:54:24;;;;;;;25.15;17.15;;;10.00;99.90;;;;;;5038584;28;20029;-85
2022/05/07 04:56:52;;;;;;;22.65;17.27;;;10.20;99.90;;;;;;5020577;28;20476;-83
2022/05/07 04:59:19;;;;;;;22.15;16.58;;;10.20;99.90;;;;;;5020331;28;20025;-81
2022/05/07 05:01:45;;;;;;;25.00;17.45;;;10.30;99.90;;;;;;5020269;28;20056;-81
2022/05/07 05:04:11;;;;;;;21.15;16.92;;;10.40;99.90;;;;;;5037566;28;20029;-84
2022/05/07 05:06:37;;;;;;;24.63;16.33;;;10.50;99.90;;;;;;5037808;28;20105;-84
2022/05/07 05:09:24;;;;;;;22.88;15.57;;;10.50;99.90;;;;;;5019422;28;20064;-81
2022/05/07 05:11:53;;;;;;;23.92;17.95;;;10.60;99.90;;;;;;5000572;28;20030;-81
2022/05/07 05:17:03;;;;;;;23.70;17.20;;;10.90;99.90;;;;;;5019231;28;20568;-84
2022/05/07 05:19:29;;;;;;;24.15;16.10;;;11.00;99.90;;;;;;5001926;28;20042;-80
2022/05/07 05:21:54;;;;;;;22.17;16.08;;;11.20;99.90;;;;;;5004101;28;20080;-83
2022/05/07 05:24:20;;;;;;;25.27;17.35;;;11.30;99.90;;;;;;5006551;28;20030;-83
2022/05/07 05:26:47;;;;;;;24.10;17.25;;;11.50;99.90;;;;;;5024907;28;20030;-83
2022/05/07 05:29:13;;;;;;;23.60;17.67;;;11.60;99.90;;;;;;5007464;28;20044;-81
2022/05/07 05:31:39;;;;;;;20.02;15.90;;;11.70;99.90;;;;;;5000634;28;20118;-84
2022/05/07 05:34:04;;;;;;;22.98;16.05;;;11.70;99.90;;;;;;5000512;28;20061;-84
2022/05/07 05:36:30;;;;;;;26.10;16.48;;;11.90;99.90;;;;;;5000751;28;20060;-83
2022/05/07 05:38:56;;;;;;;19.83;14.70;;;12.10;99.90;;;;;;5000551;28;20410;-82
2022/05/07 05:41:23;;;;;;;19.35;15.15;;;12.00;99.90;;;;;;5017712;28;20034;-84
2022/05/07 05:43:48;;;;;;;20.05;15.10;;;12.10;99.90;;;;;;5017819;28;20383;-83
2022/05/07 05:46:14;;;;;;;18.65;13.85;;;12.20;99.90;;;;;;5017304;28;20030;-84
2022/05/07 05:48:40;;;;;;;20.27;14.43;;;12.40;99.90;;;;;;5018274;28;20427;-82
2022/05/07 05:51:06;;;;;;;18.75;13.82;;;12.60;99.90;;;;;;5000426;28;20022;-84
2022/05/07 05:53:31;;;;;;;19.38;14.35;;;12.90;99.90;;;;;;5000350;28;20025;-82
2022/05/07 05:55:58;;;;;;;17.52;13.43;;;13.20;99.90;;;;;;5000622;28;20026;-82
2022/05/07 05:58:23;;;;;;;19.15;13.25;;;13.40;99.90;;;;;;4999635;28;20018;-82
2022/05/07 06:00:52;;;;;;;17.98;13.43;;;13.70;99.90;;;;;;5000360;28;20060;-82
2022/05/07 06:03:18;;;;;;;17.35;12.77;;;13.90;99.90;;;;;;5001081;28;20025;-84
2022/05/07 06:05:43;;;;;;;19.58;13.13;;;14.10;99.90;;;;;;5000274;28;20026;-83
2022/05/07 06:08:12;;;;;;;16.67;12.75;;;14.20;99.90;;;;;;5000180;28;20029;-84
2022/05/07 06:10:37;;;;;;;17.20;11.48;;;14.30;99.90;;;;;;5012211;28;20424;-84
2022/05/07 06:13:03;;;;;;;17.92;12.75;;;14.50;99.90;;;;;;5018895;28;20026;-84
2022/05/07 06:15:28;;;;;;;18.58;12.48;;;14.60;99.90;;;;;;5018550;28;20041;-83
2022/05/07 06:17:54;;;;;;;14.95;11.35;;;14.80;99.90;;;;;;5018481;28;20036;-85
2022/05/07 06:20:20;;;;;;;17.20;12.85;;;15.00;99.90;;;;;;5027040;28;20025;-84
2022/05/07 06:22:45;;;;;;;17.58;12.10;;;15.30;99.90;;;;;;5038180;28;20049;-83
2022/05/07 06:27:55;;;;;;;19.15;11.80;;;15.90;99.90;;;;;;5036592;28;20500;-84
2022/05/07 06:30:20;;;;;;;18.38;11.55;;;16.20;99.90;;;;;;5036412;28;20018;-84
2022/05/07 06:32:46;;;;;;;22.48;13.50;;;16.70;99.90;;;;;;5018189;28;20025;-81
2022/05/07 06:35:12;;;;;;;19.23;12.27;;;17.00;99.90;;;;;;5036375;28;20029;-83
2022/05/07 06:37:39;;;;;;;22.20;13.07;;;16.90;99.90;;;;;;5036701;28;20057;-83
2022/05/07 06:40:07;;;;;;;21.05;12.07;;;17.00;99.90;;;;;;5019245;28;20024;-84
2022/05/07 06:42:36;;;;;;;20.33;12.77;;;16.90;99.90;;;;;;5018984;28;20025;-84
2022/05/07 06:45:03;;;;;;;17.85;12.63;;;16.90;99.90;;;;;;5019167;28;20032;-83
2022/05/07 06:47:28;;;;;;;25.65;14.13;;;17.00;99.90;;;;;;5037113;28;20060;-80
2022/05/07 06:49:55;;;;;;;25.52;14.85;;;17.20;99.90;;;;;;5019770;28;20017;-82
2022/05/07 06:52:20;;;;;;;24.98;14.75;;;17.20;99.90;;;;;;5019547;28;20077;-85
2022/05/07 06:54:46;;;;;;;23.83;14.63;;;17.20;99.90;;;;;;5027997;28;20026;-83
2022/05/07 06:57:12;;;;;;;23.05;13.85;;;17.40;99.90;;;;;;5039584;28;20080;-82
2022/05/07 06:59:37;;;;;;;21.63;15.07;;;17.40;99.90;;;;;;5040210;28;20093;-80
2022/05/07 07:02:04;;;;;;;21.70;13.93;;;17.50;99.90;;;;;;5040455;28;20181;-79
2022/05/07 07:04:30;;;;;;;21.90;14.30;;;17.70;99.90;;;;;;5055117;28;20040;-80
2022/05/07 07:06:57;;;;;;;23.55;13.02;;;17.90;99.90;;;;;;5038858;28;20085;-82
2022/05/07 07:09:22;;;;;;;20.17;14.18;;;18.30;99.90;;;;;;5054939;28;20061;-83
2022/05/07 07:11:48;;;;;;;21.13;13.30;;;18.60;99.90;;;;;;5025586;28;20030;-85
2022/05/07 07:14:14;;;;;;;20.55;13.93;;;18.90;99.90;;;;;;5039965;28;20450;-85
2022/05/07 07:16:39;;;;;;;25.73;15.07;;;19.10;99.90;;;;;;5021728;28;20061;-82
2022/05/07 07:19:05;;;;;;;17.55;13.07;;;19.30;99.90;;;;;;5026223;28;20071;-86
2022/05/07 07:21:30;;;;;;;21.08;12.95;;;19.50;99.90;;;;;;5043751;28;20014;-85
2022/05/07 07:23:57;;;;;;;18.20;12.73;;;19.60;99.90;;;;;;5026944;28;20029;-83
2022/05/07 07:26:23;;;;;;;18.85;12.60;;;19.60;99.90;;;;;;5023744;28;20108;-84
2022/05/07 07:28:48;;;;;;;16.02;11.90;;;19.60;99.90;;;;;;5019565;28;20462;-84
2022/05/07 07:31:16;;;;;;;21.10;14.63;;;19.60;99.90;;;;;;5019865;28;20055;-85
2022/05/07 07:33:42;;;;;;;25.15;14.20;;;19.70;99.90;;;;;;5037166;28;20105;-84
2022/05/07 07:36:09;;;;;;;27.25;17.05;;;19.70;99.90;;;;;;5018875;28;20045;-83
2022/05/07 07:38:35;;;;;;;27.50;17.27;;;19.60;99.90;;;;;;5019185;28;20054;-84
2022/05/07 07:41:02;;;;;;;24.23;15.85;;;19.60;99.90;;;;;;5036860;28;20021;-84
2022/05/07 07:43:28;;;;;;;26.13;15.52;;;19.70;99.90;;;;;;5019105;28;20030;-84
2022/05/07 07:48:39;;;;;;;21.60;15.13;;;20.20;97.20;;;;;;5035884;28;20056;-85
2022/05/07 07:51:04;;;;;;;22.90;14.90;;;20.70;96.20;;;;;;5034099;28;20219;-84
2022/05/07 07:53:30;;;;;;;22.38;14.27;;;21.00;93.60;;;;;;5036145;28;20445;-82
2022/05/07 07:55:56;;;;;;;22.55;14.95;;;21.40;92.90;;;;;;5018339;28;20036;-84
2022/05/07 07:58:21;;;;;;;24.65;15.35;;;21.70;91.20;;;;;;5018181;28;20037;-84
2022/05/07 08:00:47;;;;;;;22.42;14.15;;;21.90;89.70;;;;;;5035473;28;20025;-86
2022/05/07 08:03:15;;;;;;;25.40;15.23;;;21.90;85.90;;;;;;5018387;28;20434;-83
2022/05/07 08:05:43;;;;;;;27.95;17.00;;;21.90;84.80;;;;;;5035820;28;20063;-82
2022/05/07 08:13:41;;;;;;;26.83;16.48;;;21.90;82.10;;;;;;5035458;28;20031;-85
2022/05/07 08:16:10;;;;;;;24.15;14.32;;;22.10;80.00;;;;;;5036325;28;20094;-84
2022/05/07 08:18:36;;;;;;;21.05;13.85;;;22.50;79.90;;;;;;5018442;28;20112;-85
2022/05/07 08:21:03;;;;;;;26.60;15.63;;;22.70;80.20;;;;;;5036097;28;20028;-85
2022/05/07 08:23:28;;;;;;;22.88;15.43;;;22.70;77.70;;;;;;5018823;28;20026;-85
2022/05/07 08:25:54;;;;;;;26.70;15.60;;;23.00;75.60;;;;;;5017932;28;20033;-85
2022/05/07 08:28:20;;;;;;;24.85;16.05;;;23.00;76.40;;;;;;5017430;28;20116;-85
2022/05/07 08:30:47;;;;;;;23.38;14.27;;;23.20;73.20;;;;;;5035312;28;20017;-85
2022/05/07 08:33:13;;;;;;;22.00;14.35;;;23.30;72.70;;;;;;5033902;28;20029;-86
2022/05/07 08:35:40;;;;;;;24.30;15.68;;;23.60;74.70;;;;;;5035834;28;20105;-86
2022/05/07 08:38:07;;;;;;;22.25;13.73;;;24.00;71.30;;;;;;5024219;28;20052;-85
2022/05/07 08:40:33;;;;;;;19.92;12.70;;;24.20;69.70;;;;;;5018786;28;20026;-85
2022/05/07 08:42:59;;;;;;;24.27;14.15;;;24.50;69.10;;;;;;5034633;28;20473;-87
2022/05/07 08:45:25;;;;;;;23.33;15.15;;;24.80;64.60;;;;;;5017785;28;20033;-86
2022/05/07 08:47:54;;;;;;;25.25;14.43;;;24.70;64.70;;;;;;5037046;28;20017;-86
2022/05/07 08:50:21;;;;;;;23.52;13.88;;;24.60;63.00;;;;;;5016845;28;20539;-85
2022/05/07 08:52:47;;;;;;;22.85;13.55;;;24.50;63.70;;;;;;5033629;28;20061;-85
2022/05/07 08:55:14;;;;;;;24.90;13.55;;;24.70;61.80;;;;;;5033655;28;20106;-83
2022/05/07 08:57:41;;;;;;;23.88;14.52;;;25.00;60.10;;;;;;5033395;28;20033;-84
2022/05/07 09:00:09;;;;;;;24.30;13.85;;;25.30;59.20;;;;;;5033920;28;20018;-86
2022/05/07 09:02:58;;;;;;;23.50;13.55;;;25.60;58.80;;;;;;5016167;28;20021;-86
2022/05/07 09:05:34;;;;;;;19.27;11.82;;;25.70;57.70;;;;;;5016007;28;20128;-82
2022/05/07 09:08:00;;;;;;;21.08;12.55;;;25.80;57.90;;;;;;5016811;28;20030;-83
2022/05/07 09:10:28;;;;;;;20.30;11.95;;;26.00;56.80;;;;;;5035325;28;20032;-86
2022/05/07 09:13:14;;;;;;;21.50;12.57;;;26.20;56.20;;;;;;5017575;28;20029;-85
2022/05/07 09:15:49;;;;;;;23.60;14.02;;;26.40;55.90;;;;;;5016796;28;20099;-84
2022/05/07 09:18:16;;;;;;;;;;;26.60;55.90;;;;;;5035901;28;20028;-84
2022/05/07 09:20:42;;;;;;;23.23;13.35;;;26.70;54.60;;;;;;5034939;28;19963;-85
2022/05/07 09:23:10;;;;;;;18.27;13.23;;;26.40;55.20;;;;;;5020646;28;20030;-84
2022/05/07 09:25:49;;;;;;;19.63;13.55;;;26.40;55.50;;;;;;5020986;28;20366;-84
2022/05/07 09:28:28;;;;;;;21.42;13.23;;;26.30;56.00;;;;;;5037824;28;20024;-86
2022/05/07 09:30:57;;;;;;;19.30;13.20;;;26.10;56.50;;;;;;5021751;28;20027;-85
2022/05/07 09:33:33;;;;;;;18.20;12.73;;;26.40;56.70;;;;;;5021924;28;20017;-87
2022/05/07 09:36:12;;;;;;;20.77;14.18;;;26.60;54.40;;;;;;5021376;28;20025;-84
2022/05/07 09:38:38;;;;;;;22.20;14.93;;;26.50;54.80;;;;;;5037752;28;20025;-84
2022/05/07 09:41:05;;;;;;;21.23;14.30;;;26.60;54.30;;;;;;5038783;28;20143;-84
2022/05/07 09:43:31;;;;;;;22.80;16.08;;;26.70;55.30;;;;;;5037820;28;20085;-87
2022/05/07 09:45:57;;;;;;;21.17;14.50;;;26.60;53.90;;;;;;5020333;28;20049;-83
2022/05/07 09:48:23;;;;;;;17.85;12.63;;;26.60;54.80;;;;;;5037464;28;20465;-87
2022/05/07 09:50:50;;;;;;;22.02;14.88;;;26.60;55.20;;;;;;5039481;28;20030;-84
2022/05/07 09:58:48;;;;;;;23.17;15.27;;;26.60;54.50;;;;;;5040528;28;20032;-86
2022/05/07 10:01:36;;;;;;;22.27;15.25;;;26.50;54.90;;;;;;5040311;28;20385;-86
2022/05/07 10:04:47;;;;;;;19.50;13.63;;;26.00;55.30;;;;;;5021208;28;20029;-87
2022/05/07 10:07:24;;;;;;;24.58;17.30;;;25.20;57.40;;;;;;5031877;28;20079;-86
2022/05/07 10:10:03;;;;;;;26.05;18.02;;;24.50;57.80;;;;;;5037653;28;20342;-84
2022/05/07 10:12:30;;;;;;;24.77;16.95;;;23.80;60.50;;;;;;5020419;28;20040;-84
2022/05/07 10:15:07;;;;;;;28.27;18.08;;;23.30;62.30;;;;;;5037973;28;20025;-84
2022/05/07 10:17:34;;;;;;;25.70;18.92;;;22.80;63.50;;;;;;5019787;28;20052;-83
2022/05/07 10:20:09;;;;;;;30.33;21.27;;;22.60;64.20;;;;;;5019631;28;20026;-82
2022/05/07 10:22:35;;;;;;;29.52;21.08;;;22.40;64.80;;;;;;5020196;28;20080;-83
2022/05/07 10:25:08;;;;;;;27.88;18.90;;;22.80;63.60;;;;;;5037219;28;20565;-83
2022/05/07 10:27:41;;;;;;;28.75;21.92;;;23.80;62.80;;;;;;5020186;28;20029;-83
2022/05/07 10:30:07;;;;;;;24.83;17.55;;;24.60;59.00;;;;;;5020647;28;20465;-83
2022/05/07 10:33:02;;;;;;;23.38;16.33;;;25.20;59.50;;;;;;5019520;28;20068;-84
2022/05/07 10:35:49;;;;;;;25.08;17.77;;;25.80;57.40;;;;;;5021173;28;20030;-84
2022/05/07 10:38:24;;;;;;;24.30;16.55;;;26.50;53.70;;;;;;5037281;28;20112;-83
2022/05/07 10:40:50;;;;;;;;;;;26.80;54.70;;;;;;5037986;28;20044;-85
2022/05/07 10:43:25;;;;;;;;;;;26.80;54.90;;;;;;5038914;28;19905;-85
2022/05/07 10:45:56;;;;;;;28.55;18.85;;;26.80;54.70;;;;;;5019730;28;19909;-83
2022/05/07 10:48:22;;;;;;;24.88;17.05;;;26.90;53.20;;;;;;5019697;28;20060;-85
2022/05/07 10:50:55;;;;;;;21.95;15.57;;;26.80;53.20;;;;;;5037491;28;20021;-84
2022/05/07 10:53:21;;;;;;;22.02;17.10;;;27.20;54.90;;;;;;5038855;28;20017;-86
2022/05/07 10:55:50;;;;;;;24.52;17.15;;;27.10;53.80;;;;;;5045278;28;20026;-86
2022/05/07 10:58:26;;;;;;;23.42;18.27;;;26.50;53.60;;;;;;5021072;28;20031;-84
2022/05/07 11:00:52;;;;;;;21.92;16.92;;;25.60;55.90;;;;;;5037438;28;20033;-82
2022/05/07 11:03:25;;;;;;;26.25;17.88;;;25.00;57.20;;;;;;5019293;28;20030;-85
2022/05/07 11:05:50;;;;;;;23.98;15.70;;;24.40;57.70;;;;;;5037450;28;20025;-85
2022/05/07 11:08:16;;;;;;;23.98;17.08;;;24.00;58.60;;;;;;5036649;28;20140;-85
2022/05/07 11:10:42;;;;;;;23.02;16.88;;;24.10;58.80;;;;;;5038045;28;20026;-85
2022/05/07 11:13:09;;;;;;;22.55;16.30;;;24.70;59.90;;;;;;5021082;28;20426;-84
2022/05/07 11:15:34;;;;;;;23.77;16.63;;;25.50;56.80;;;;;;5019952;28;20500;-84
2022/05/07 11:18:00;;;;;;;27.05;20.10;;;26.20;54.10;;;;;;5037782;28;20037;-86
2022/05/07 11:20:32;;;;;;;26.52;19.23;;;26.60;54.40;;;;;;5036883;28;20541;-82
2022/05/07 11:23:03;;;;;;;25.58;17.27;;;27.00;53.90;;;;;;5037248;28;20055;-85
2022/05/07 11:25:28;;;;;;;22.92;16.67;;;27.60;53.20;;;;;;5019933;28;20150;-81
2022/05/07 11:27:56;;;;;;;25.40;17.00;;;28.00;53.10;;;;;;5037604;28;20033;-84
2022/05/07 11:30:21;;;;;;;25.65;18.88;;;28.20;51.80;;;;;;5038580;28;20100;-84
2022/05/07 11:32:47;;;;;;;24.27;18.30;;;27.80;50.80;;;;;;5020488;28;20060;-81
2022/05/07 11:35:13;;;;;;;21.10;15.45;;;26.90;51.10;;;;;;5038763;28;20033;-80
2022/05/07 11:37:43;;;;;;;23.00;15.02;;;26.10;52.40;;;;;;5038619;28;20036;-83
2022/05/07 11:40:13;;;;;;;22.55;17.63;;;25.30;52.70;;;;;;5037797;28;20052;-80
2022/05/07 11:42:44;;;;;;;24.35;15.75;;;25.10;54.80;;;;;;5036129;28;20026;-82
2022/05/07 11:45:26;;;;;;;27.92;17.30;;;25.40;54.10;;;;;;5036453;28;20087;-81
2022/05/07 11:47:55;;;;;;;22.02;16.05;;;25.80;54.40;;;;;;5020062;28;20060;-83
2022/05/07 11:50:24;;;;;;;22.25;15.73;;;25.80;54.20;;;;;;5020184;28;20385;-83
2022/05/07 11:52:50;;;;;;;26.20;16.95;;;25.80;54.70;;;;;;5037861;28;20385;-82
2022/05/07 11:55:19;;;;;;;22.92;16.45;;;25.70;54.00;;;;;;5038120;28;20128;-83
2022/05/07 11:57:46;;;;;;;27.23;17.65;;;25.30;56.10;;;;;;5018728;28;20076;-82
2022/05/07 12:00:16;;;;;;;20.77;15.43;;;24.60;57.40;;;;;;5037453;28;20021;-82
2022/05/07 12:03:01;;;;;;;24.65;17.10;;;23.90;58.60;;;;;;5019691;28;20112;-81
2022/05/07 12:05:39;;;;;;;23.73;17.58;;;23.50;60.00;;;;;;5037989;28;20022;-82
2022/05/07 12:08:15;;;;;;;23.15;14.80;;;23.20;59.90;;;;;;5037627;28;20068;-81
2022/05/07 12:10:42;;;;;;;23.45;16.75;;;22.80;60.40;;;;;;5019219;28;20044;-83
2022/05/07 12:13:08;;;;;;;17.58;12.73;;;22.60;61.80;;;;;;5037568;28;20044;-83
2022/05/07 12:18:24;;;;;;;17.75;14.02;;;22.60;61.90;;;;;;5036684;28;20074;-82
2022/05/07 12:20:53;;;;;;;19.75;14.65;;;22.70;60.40;;;;;;5037218;28;20489;-84
2022/05/07 12:31:32;;;;;;;23.73;14.88;;;23.30;61.80;;;;;;5037314;28;20049;-80
2022/05/07 12:33:57;;;;;;;21.70;13.70;;;23.40;61.10;;;;;;5019701;28;20497;-83
2022/05/07 12:36:23;;;;;;;19.85;13.43;;;23.50;62.00;;;;;;5019497;28;20033;-82
2022/05/07 12:38:48;;;;;;;19.73;12.95;;;23.50;61.60;;;;;;5019820;28;20024;-83
2022/05/07 12:41:15;;;;;;;20.83;13.88;;;23.40;64.00;;;;;;5020290;28;20041;-81
2022/05/07 12:43:42;;;;;;;21.67;14.23;;;23.20;64.30;;;;;;5022609;28;20029;-83
2022/05/07 12:46:07;;;;;;;19.95;14.27;;;23.00;66.40;;;;;;5038962;28;20032;-85
2022/05/07 12:48:33;;;;;;;20.50;11.65;;;22.80;67.30;;;;;;5037175;28;20076;-85
2022/05/07 12:50:59;;;;;;;21.63;14.07;;;22.70;66.50;;;;;;5018929;28;20029;-85
2022/05/07 12:53:24;;;;;;;17.95;13.07;;;22.60;65.30;;;;;;5018875;28;20022;-83
2022/05/07 12:55:50;;;;;;;19.73;13.30;;;22.50;66.60;;;;;;5038069;28;20025;-85
2022/05/07 12:58:16;;;;;;;20.38;14.35;;;22.60;67.80;;;;;;5023228;28;20028;-84
2022/05/07 13:00:41;;;;;;;21.25;13.43;;;22.60;67.00;;;;;;5022989;28;20040;-85
2022/05/07 13:03:09;;;;;;;19.17;13.43;;;22.80;67.10;;;;;;5039283;28;20044;-85
2022/05/07 13:05:35;;;;;;;20.35;14.88;;;23.10;65.00;;;;;;5022736;28;20033;-83
2022/05/07 13:08:04;;;;;;;21.88;16.27;;;23.70;65.50;;;;;;5022937;28;20470;-82